sensor_id;sensor_type;location;lat;lon;timestamp;pressure;altitude;pressure_sealevel;temperature;humidity
35918;BME280;22011;59.912;30.300;2023-07-29T00:02:07;100124.88;;;16.30;69.30
35918;BME280;22011;59.912;30.300;2023-07-29T00:04:34;100120.16;;;16.26;68.94
35918;BME280;22011;59.912;30.300;2023-07-29T00:07:04;100121.19;;;16.25;68.97
35918;BME280;22011;59.912;30.300;2023-07-29T00:09:31;100119.78;;;16.22;69.76
35918;BME280;22011;59.912;30.300;2023-07-29T00:11:59;100125.59;;;16.19;69.75
35918;BME280;22011;59.912;30.300;2023-07-29T00:14:27;100120.69;;;16.10;70.03
35918;BME280;22011;59.912;30.300;2023-07-29T00:16:54;100120.72;;;16.03;70.21
35918;BME280;22011;59.912;30.300;2023-07-29T00:19:22;100132.75;;;15.94;70.49
35918;BME280;22011;59.912;30.300;2023-07-29T00:21:50;100133.41;;;15.89;71.14
35918;BME280;22011;59.912;30.300;2023-07-29T00:24:19;100136.97;;;15.83;71.29
35918;BME280;22011;59.912;30.300;2023-07-29T00:26:47;100133.03;;;15.79;71.92
35918;BME280;22011;59.912;30.300;2023-07-29T00:29:15;100133.69;;;15.75;71.58
35918;BME280;22011;59.912;30.300;2023-07-29T00:31:42;100123.16;;;15.73;71.00
35918;BME280;22011;59.912;30.300;2023-07-29T00:34:10;100136.16;;;15.76;71.47
35918;BME280;22011;59.912;30.300;2023-07-29T00:36:43;100123.94;;;15.80;71.22
35918;BME280;22011;59.912;30.300;2023-07-29T00:39:12;100132.19;;;15.85;71.59
35918;BME280;22011;59.912;30.300;2023-07-29T00:41:41;100138.56;;;15.91;71.80
35918;BME280;22011;59.912;30.300;2023-07-29T00:44:09;100137.31;;;15.93;71.64
35918;BME280;22011;59.912;30.300;2023-07-29T00:46:38;100142.47;;;15.95;71.54
35918;BME280;22011;59.912;30.300;2023-07-29T00:49:05;100138.97;;;15.94;71.16
35918;BME280;22011;59.912;30.300;2023-07-29T00:51:33;100143.72;;;15.92;72.13
35918;BME280;22011;59.912;30.300;2023-07-29T00:54:01;100144.75;;;15.91;72.02
35918;BME280;22011;59.912;30.300;2023-07-29T00:56:28;100141.47;;;15.89;71.76
35918;BME280;22011;59.912;30.300;2023-07-29T00:58:58;100146.84;;;15.89;72.19
35918;BME280;22011;59.912;30.300;2023-07-29T01:01:28;100146.44;;;15.86;72.14
35918;BME280;22011;59.912;30.300;2023-07-29T01:03:55;100140.69;;;15.82;72.31
35918;BME280;22011;59.912;30.300;2023-07-29T01:06:27;100147.88;;;15.88;72.80
35918;BME280;22011;59.912;30.300;2023-07-29T01:09:01;100150.13;;;15.91;72.94
35918;BME280;22011;59.912;30.300;2023-07-29T01:11:38;100155.50;;;15.91;73.11
35918;BME280;22011;59.912;30.300;2023-07-29T01:14:17;100163.56;;;15.91;72.86
35918;BME280;22011;59.912;30.300;2023-07-29T01:16:53;100165.03;;;15.87;72.65
35918;BME280;22011;59.912;30.300;2023-07-29T01:19:37;100169.56;;;15.93;73.80
35918;BME280;22011;59.912;30.300;2023-07-29T01:22:10;100165.06;;;15.81;72.82
35918;BME280;22011;59.912;30.300;2023-07-29T01:24:39;100165.91;;;15.81;73.99
35918;BME280;22011;59.912;30.300;2023-07-29T01:27:07;100165.06;;;15.81;73.33
35918;BME280;22011;59.912;30.300;2023-07-29T01:29:35;100174.16;;;15.80;73.67
35918;BME280;22011;59.912;30.300;2023-07-29T01:32:07;100158.22;;;15.85;74.23
35918;BME280;22011;59.912;30.300;2023-07-29T01:34:42;100169.19;;;15.83;73.63
35918;BME280;22011;59.912;30.300;2023-07-29T01:37:16;100166.94;;;15.80;73.44
35918;BME280;22011;59.912;30.300;2023-07-29T01:39:49;100155.56;;;15.78;73.89
35918;BME280;22011;59.912;30.300;2023-07-29T01:42:18;100166.34;;;15.72;74.04
35918;BME280;22011;59.912;30.300;2023-07-29T01:44:46;100172.53;;;15.72;73.45
35918;BME280;22011;59.912;30.300;2023-07-29T01:47:14;100184.94;;;15.73;74.06
35918;BME280;22011;59.912;30.300;2023-07-29T01:49:41;100184.94;;;15.73;73.34
35918;BME280;22011;59.912;30.300;2023-07-29T01:52:09;100180.59;;;15.72;72.77
35918;BME280;22011;59.912;30.300;2023-07-29T01:54:37;100178.34;;;15.69;73.05
35918;BME280;22011;59.912;30.300;2023-07-29T01:57:06;100179.81;;;15.65;73.27
35918;BME280;22011;59.912;30.300;2023-07-29T01:59:34;100180.44;;;15.60;73.59
35918;BME280;22011;59.912;30.300;2023-07-29T02:02:02;100177.38;;;15.57;73.79
35918;BME280;22011;59.912;30.300;2023-07-29T02:04:29;100177.59;;;15.49;74.51
35918;BME280;22011;59.912;30.300;2023-07-29T02:06:57;100170.59;;;15.41;74.45
35918;BME280;22011;59.912;30.300;2023-07-29T02:09:25;100181.34;;;15.34;74.96
35918;BME280;22011;59.912;30.300;2023-07-29T02:11:53;100180.94;;;15.24;74.41
35918;BME280;22011;59.912;30.300;2023-07-29T02:14:22;100181.38;;;15.21;75.01
35918;BME280;22011;59.912;30.300;2023-07-29T02:16:50;100183.22;;;15.21;75.24
35918;BME280;22011;59.912;30.300;2023-07-29T02:19:18;100188.78;;;15.19;75.09
35918;BME280;22011;59.912;30.300;2023-07-29T02:21:45;100179.09;;;15.18;75.07
35918;BME280;22011;59.912;30.300;2023-07-29T02:24:13;100189.22;;;15.16;75.24
35918;BME280;22011;59.912;30.300;2023-07-29T02:26:41;100193.97;;;15.14;75.46
35918;BME280;22011;59.912;30.300;2023-07-29T02:29:09;100187.56;;;15.15;75.64
35918;BME280;22011;59.912;30.300;2023-07-29T02:31:40;100195.81;;;15.20;75.85
35918;BME280;22011;59.912;30.300;2023-07-29T02:34:10;100198.31;;;15.15;75.95
35918;BME280;22011;59.912;30.300;2023-07-29T02:36:38;100194.59;;;15.16;75.58
35918;BME280;22011;59.912;30.300;2023-07-29T02:39:06;100195.63;;;15.15;75.52
35918;BME280;22011;59.912;30.300;2023-07-29T02:41:34;100186.94;;;15.13;75.13
35918;BME280;22011;59.912;30.300;2023-07-29T02:44:02;100199.53;;;15.13;75.21
35918;BME280;22011;59.912;30.300;2023-07-29T02:46:30;100193.56;;;15.11;75.62
35918;BME280;22011;59.912;30.300;2023-07-29T02:48:59;100200.78;;;15.10;75.75
35918;BME280;22011;59.912;30.300;2023-07-29T02:51:26;100199.53;;;15.06;75.23
35918;BME280;22011;59.912;30.300;2023-07-29T02:53:54;100202.84;;;15.08;76.09
35918;BME280;22011;59.912;30.300;2023-07-29T02:56:22;100199.53;;;15.06;76.09
35918;BME280;22011;59.912;30.300;2023-07-29T02:58:49;100199.53;;;15.06;76.35
35918;BME280;22011;59.912;30.300;2023-07-29T03:01:18;100201.19;;;15.07;76.02
35918;BME280;22011;59.912;30.300;2023-07-29T03:03:46;100205.75;;;15.07;75.34
35918;BME280;22011;59.912;30.300;2023-07-29T03:06:15;100209.44;;;15.12;75.66
35918;BME280;22011;59.912;30.300;2023-07-29T03:08:43;100213.16;;;15.11;75.53
35918;BME280;22011;59.912;30.300;2023-07-29T03:11:13;100221.84;;;15.13;75.69
35918;BME280;22011;59.912;30.300;2023-07-29T03:13:41;100225.97;;;15.16;75.85
35918;BME280;22011;59.912;30.300;2023-07-29T03:16:11;100220.38;;;15.11;75.46
35918;BME280;22011;59.912;30.300;2023-07-29T03:18:40;100218.94;;;15.08;75.77
35918;BME280;22011;59.912;30.300;2023-07-29T03:21:09;100222.66;;;15.07;75.62
35918;BME280;22011;59.912;30.300;2023-07-29T03:23:39;100219.78;;;15.09;76.43
35918;BME280;22011;59.912;30.300;2023-07-29T03:26:07;100217.09;;;15.09;76.00
35918;BME280;22011;59.912;30.300;2023-07-29T03:28:38;100226.38;;;15.13;76.01
35918;BME280;22011;59.912;30.300;2023-07-29T03:31:06;100219.75;;;15.15;75.72
35918;BME280;22011;59.912;30.300;2023-07-29T03:33:34;100213.16;;;15.18;75.71
35918;BME280;22011;59.912;30.300;2023-07-29T03:36:02;100218.09;;;15.21;75.72
35918;BME280;22011;59.912;30.300;2023-07-29T03:38:30;100216.03;;;15.23;75.50
35918;BME280;22011;59.912;30.300;2023-07-29T03:41:00;100222.00;;;15.31;75.67
35918;BME280;22011;59.912;30.300;2023-07-29T03:43:29;100213.94;;;15.58;75.88
35918;BME280;22011;59.912;30.300;2023-07-29T03:45:58;100216.00;;;15.43;75.55
35918;BME280;22011;59.912;30.300;2023-07-29T03:48:26;100219.50;;;15.43;75.20
35918;BME280;22011;59.912;30.300;2023-07-29T03:50:54;100209.59;;;15.44;74.94
35918;BME280;22011;59.912;30.300;2023-07-29T03:53:21;100220.97;;;15.46;74.54
35918;BME280;22011;59.912;30.300;2023-07-29T03:55:49;100223.84;;;15.51;74.25
35918;BME280;22011;59.912;30.300;2023-07-29T03:58:18;100218.03;;;15.60;74.14
35918;BME280;22011;59.912;30.300;2023-07-29T04:00:46;100224.22;;;15.67;73.78
35918;BME280;22011;59.912;30.300;2023-07-29T04:03:16;100222.13;;;15.76;73.54
35918;BME280;22011;59.912;30.300;2023-07-29T04:05:44;100221.47;;;15.81;73.30
35918;BME280;22011;59.912;30.300;2023-07-29T04:08:12;100224.34;;;15.86;72.79
35918;BME280;22011;59.912;30.300;2023-07-29T04:10:40;100217.31;;;15.91;72.54
35918;BME280;22011;59.912;30.300;2023-07-29T04:13:08;100225.72;;;16.01;72.52
35918;BME280;22011;59.912;30.300;2023-07-29T04:15:37;100236.03;;;16.11;72.70
35918;BME280;22011;59.912;30.300;2023-07-29T04:18:05;100228.97;;;16.17;71.36
35918;BME280;22011;59.912;30.300;2023-07-29T04:20:33;100223.78;;;16.22;71.39
35918;BME280;22011;59.912;30.300;2023-07-29T04:23:01;100224.34;;;16.30;70.91
35918;BME280;22011;59.912;30.300;2023-07-29T04:25:28;100226.41;;;16.35;71.17
35918;BME280;22011;59.912;30.300;2023-07-29T04:27:56;100233.00;;;16.39;70.84
35918;BME280;22011;59.912;30.300;2023-07-29T04:30:24;100219.94;;;16.43;70.76
35918;BME280;22011;59.912;30.300;2023-07-29T04:32:54;100220.50;;;16.51;70.57
35918;BME280;22011;59.912;30.300;2023-07-29T04:35:21;100219.84;;;16.56;70.89
35918;BME280;22011;59.912;30.300;2023-07-29T04:37:49;100216.72;;;16.59;70.88
35918;BME280;22011;59.912;30.300;2023-07-29T04:40:17;100211.50;;;16.64;70.97
35918;BME280;22011;59.912;30.300;2023-07-29T04:42:44;100213.34;;;16.70;70.45
35918;BME280;22011;59.912;30.300;2023-07-29T04:45:12;100219.09;;;16.74;70.11
35918;BME280;22011;59.912;30.300;2023-07-29T04:47:40;100210.16;;;16.80;70.35
35918;BME280;22011;59.912;30.300;2023-07-29T04:50:09;100219.22;;;16.85;70.10
35918;BME280;22011;59.912;30.300;2023-07-29T04:52:37;100220.06;;;16.86;69.43
35918;BME280;22011;59.912;30.300;2023-07-29T04:55:05;100216.47;;;16.92;69.64
35918;BME280;22011;59.912;30.300;2023-07-29T04:57:33;100214.34;;;17.00;68.59
35918;BME280;22011;59.912;30.300;2023-07-29T05:00:03;100225.44;;;17.11;69.10
35918;BME280;22011;59.912;30.300;2023-07-29T05:02:30;100225.81;;;17.14;68.30
35918;BME280;22011;59.912;30.300;2023-07-29T05:04:58;100218.28;;;17.23;68.01
35918;BME280;22011;59.912;30.300;2023-07-29T05:07:27;100218.66;;;17.26;67.89
35918;BME280;22011;59.912;30.300;2023-07-29T05:09:55;100211.78;;;17.30;68.24
35918;BME280;22011;59.912;30.300;2023-07-29T05:12:22;100209.03;;;17.37;68.38
35918;BME280;22011;59.912;30.300;2023-07-29T05:14:50;100217.03;;;17.44;68.11
35918;BME280;22011;59.912;30.300;2023-07-29T05:17:18;100213.59;;;17.55;67.20
35918;BME280;22011;59.912;30.300;2023-07-29T05:19:45;100220.41;;;17.57;67.16
35918;BME280;22011;59.912;30.300;2023-07-29T05:22:13;100211.06;;;17.60;67.78
35918;BME280;22011;59.912;30.300;2023-07-29T05:24:42;100224.00;;;17.70;67.27
35918;BME280;22011;59.912;30.300;2023-07-29T05:27:10;100220.41;;;17.76;66.72
35918;BME280;22011;59.912;30.300;2023-07-29T05:29:38;100210.59;;;17.81;67.17
35918;BME280;22011;59.912;30.300;2023-07-29T05:32:06;100213.44;;;17.86;66.97
35918;BME280;22011;59.912;30.300;2023-07-29T05:34:33;100211.34;;;17.88;66.17
35918;BME280;22011;59.912;30.300;2023-07-29T05:37:01;100210.44;;;17.94;65.98
35918;BME280;22011;59.912;30.300;2023-07-29T05:39:30;100213.44;;;18.05;66.22
35918;BME280;22011;59.912;30.300;2023-07-29T05:41:59;100217.00;;;18.17;65.59
35918;BME280;22011;59.912;30.300;2023-07-29T05:44:28;100215.34;;;18.16;65.70
35918;BME280;22011;59.912;30.300;2023-07-29T05:46:56;100214.91;;;18.19;65.65
35918;BME280;22011;59.912;30.300;2023-07-29T05:49:24;100213.25;;;18.18;65.95
35918;BME280;22011;59.912;30.300;2023-07-29T05:51:52;100206.00;;;18.18;66.12
35918;BME280;22011;59.912;30.300;2023-07-29T05:54:19;100198.50;;;18.20;65.40
35918;BME280;22011;59.912;30.300;2023-07-29T05:56:47;100196.25;;;18.17;65.61
35918;BME280;22011;59.912;30.300;2023-07-29T05:59:16;100203.53;;;18.17;65.98
35918;BME280;22011;59.912;30.300;2023-07-29T06:01:44;100208.31;;;18.15;64.96
35918;BME280;22011;59.912;30.300;2023-07-29T06:04:13;100213.66;;;18.33;65.26
35918;BME280;22011;59.912;30.300;2023-07-29T06:06:40;100212.09;;;18.55;64.42
35918;BME280;22011;59.912;30.300;2023-07-29T06:09:08;100205.13;;;18.66;64.45
35918;BME280;22011;59.912;30.300;2023-07-29T06:11:36;100196.44;;;18.76;63.58
35918;BME280;22011;59.912;30.300;2023-07-29T06:14:04;100197.59;;;18.80;63.34
35918;BME280;22011;59.912;30.300;2023-07-29T06:16:33;100200.88;;;18.82;63.41
35918;BME280;22011;59.912;30.300;2023-07-29T06:19:01;100203.13;;;18.85;63.29
35918;BME280;22011;59.912;30.300;2023-07-29T06:21:28;100202.19;;;18.91;63.58
35918;BME280;22011;59.912;30.300;2023-07-29T06:23:56;100200.31;;;18.91;62.85
35918;BME280;22011;59.912;30.300;2023-07-29T06:26:24;100200.69;;;18.95;62.57
35918;BME280;22011;59.912;30.300;2023-07-29T06:28:51;100187.19;;;19.07;60.61
35918;BME280;22011;59.912;30.300;2023-07-29T06:31:19;100193.53;;;19.12;61.13
35918;BME280;22011;59.912;30.300;2023-07-29T06:33:48;100184.47;;;19.18;61.89
35918;BME280;22011;59.912;30.300;2023-07-29T06:36:16;100182.97;;;19.22;60.13
35918;BME280;22011;59.912;30.300;2023-07-29T06:38:44;100177.66;;;19.27;60.35
35918;BME280;22011;59.912;30.300;2023-07-29T06:41:11;100175.06;;;19.33;60.25
35918;BME280;22011;59.912;30.300;2023-07-29T06:43:39;100174.13;;;19.39;59.51
35918;BME280;22011;59.912;30.300;2023-07-29T06:46:07;100170.13;;;19.41;59.50
35918;BME280;22011;59.912;30.300;2023-07-29T06:48:35;100178.50;;;19.51;59.48
35918;BME280;22011;59.912;30.300;2023-07-29T06:51:04;100177.66;;;19.63;58.98
35918;BME280;22011;59.912;30.300;2023-07-29T06:53:32;100183.28;;;19.61;57.62
35918;BME280;22011;59.912;30.300;2023-07-29T06:55:59;100180.34;;;19.63;57.37
35918;BME280;22011;59.912;30.300;2023-07-29T06:58:27;100190.09;;;19.64;57.44
35918;BME280;22011;59.912;30.300;2023-07-29T07:00:55;100179.25;;;19.75;57.29
35918;BME280;22011;59.912;30.300;2023-07-29T07:03:22;100181.56;;;19.83;57.94
35918;BME280;22011;59.912;30.300;2023-07-29T07:05:50;100173.56;;;19.88;58.03
35918;BME280;22011;59.912;30.300;2023-07-29T07:08:19;100174.72;;;19.92;58.19
35918;BME280;22011;59.912;30.300;2023-07-29T07:10:47;100167.28;;;20.00;57.63
35918;BME280;22011;59.912;30.300;2023-07-29T07:13:15;100156.56;;;20.05;58.07
35918;BME280;22011;59.912;30.300;2023-07-29T07:15:42;100158.97;;;20.18;57.98
35918;BME280;22011;59.912;30.300;2023-07-29T07:18:11;100159.25;;;20.33;57.20
35918;BME280;22011;59.912;30.300;2023-07-29T07:20:38;100146.59;;;20.50;56.31
35918;BME280;22011;59.912;30.300;2023-07-29T07:23:06;100156.84;;;20.65;55.70
35918;BME280;22011;59.912;30.300;2023-07-29T07:25:38;100156.59;;;20.67;55.61
35918;BME280;22011;59.912;30.300;2023-07-29T07:28:06;100144.63;;;20.63;56.17
35918;BME280;22011;59.912;30.300;2023-07-29T07:30:34;100154.72;;;20.50;55.41
35918;BME280;22011;59.912;30.300;2023-07-29T07:33:01;100150.59;;;20.48;54.42
35918;BME280;22011;59.912;30.300;2023-07-29T07:35:29;100146.59;;;20.50;54.96
35918;BME280;22011;59.912;30.300;2023-07-29T07:37:56;100142.97;;;20.62;54.77
35918;BME280;22011;59.912;30.300;2023-07-29T07:40:25;100150.41;;;20.88;55.15
35918;BME280;22011;59.912;30.300;2023-07-29T07:42:54;100159.00;;;21.02;54.42
35918;BME280;22011;59.912;30.300;2023-07-29T07:45:21;100159.84;;;21.02;54.26
35918;BME280;22011;59.912;30.300;2023-07-29T07:47:49;100158.03;;;20.91;54.10
35918;BME280;22011;59.912;30.300;2023-07-29T07:50:18;100166.00;;;20.81;54.48
35918;BME280;22011;59.912;30.300;2023-07-29T07:52:46;100154.69;;;20.84;54.56
35918;BME280;22011;59.912;30.300;2023-07-29T07:55:14;100151.06;;;20.95;53.93
35918;BME280;22011;59.912;30.300;2023-07-29T07:57:41;100152.53;;;21.03;53.75
35918;BME280;22011;59.912;30.300;2023-07-29T08:00:11;100161.56;;;21.25;54.22
35918;BME280;22011;59.912;30.300;2023-07-29T08:02:43;100152.50;;;21.36;53.09
35918;BME280;22011;59.912;30.300;2023-07-29T08:05:11;100150.03;;;21.35;52.90
35918;BME280;22011;59.912;30.300;2023-07-29T08:07:38;100147.22;;;21.46;52.35
35918;BME280;22011;59.912;30.300;2023-07-29T08:10:07;100148.84;;;21.47;52.57
35918;BME280;22011;59.912;30.300;2023-07-29T08:12:34;100145.25;;;21.42;52.02
35918;BME280;22011;59.912;30.300;2023-07-29T08:15:02;100143.28;;;21.37;51.88
35918;BME280;22011;59.912;30.300;2023-07-29T08:17:31;100150.34;;;21.38;51.15
35918;BME280;22011;59.912;30.300;2023-07-29T08:19:59;100156.91;;;21.42;50.54
35918;BME280;22011;59.912;30.300;2023-07-29T08:22:26;100149.97;;;21.51;50.85
35918;BME280;22011;59.912;30.300;2023-07-29T08:24:54;100148.34;;;21.72;49.93
35918;BME280;22011;59.912;30.300;2023-07-29T08:27:21;100138.97;;;21.85;50.24
35918;BME280;22011;59.912;30.300;2023-07-29T08:29:49;100138.44;;;22.10;49.28
35918;BME280;22011;59.912;30.300;2023-07-29T08:32:17;100135.69;;;22.32;48.71
35918;BME280;22011;59.912;30.300;2023-07-29T08:34:45;100136.63;;;22.47;48.92
35918;BME280;22011;59.912;30.300;2023-07-29T08:37:13;100126.91;;;22.51;48.03
35918;BME280;22011;59.912;30.300;2023-07-29T08:39:41;100125.13;;;22.35;48.80
35918;BME280;22011;59.912;30.300;2023-07-29T08:42:11;100130.75;;;22.29;49.69
35918;BME280;22011;59.912;30.300;2023-07-29T08:44:41;100131.06;;;22.32;49.53
35918;BME280;22011;59.912;30.300;2023-07-29T08:47:08;100143.75;;;22.91;50.35
35918;BME280;22011;59.912;30.300;2023-07-29T08:49:36;100138.47;;;22.74;48.80
35918;BME280;22011;59.912;30.300;2023-07-29T08:52:06;100139.69;;;22.93;48.40
35918;BME280;22011;59.912;30.300;2023-07-29T08:54:34;100142.16;;;22.95;48.24
35918;BME280;22011;59.912;30.300;2023-07-29T08:57:03;100141.69;;;23.08;49.51
35918;BME280;22011;59.912;30.300;2023-07-29T08:59:31;100137.97;;;23.19;48.38
35918;BME280;22011;59.912;30.300;2023-07-29T09:01:59;100133.59;;;23.18;47.70
35918;BME280;22011;59.912;30.300;2023-07-29T09:04:26;100142.31;;;23.20;48.06
35918;BME280;22011;59.912;30.300;2023-07-29T09:06:56;100140.38;;;23.15;46.98
35918;BME280;22011;59.912;30.300;2023-07-29T09:09:25;100131.28;;;22.95;47.65
35918;BME280;22011;59.912;30.300;2023-07-29T09:11:53;100140.22;;;22.90;46.61
35918;BME280;22011;59.912;30.300;2023-07-29T09:14:21;100135.59;;;22.86;47.14
35918;BME280;22011;59.912;30.300;2023-07-29T09:16:49;100136.69;;;22.85;47.24
35918;BME280;22011;59.912;30.300;2023-07-29T09:19:16;100138.03;;;22.82;47.27
35918;BME280;22011;59.912;30.300;2023-07-29T09:21:46;100135.88;;;22.84;48.21
35918;BME280;22011;59.912;30.300;2023-07-29T09:24:15;100133.81;;;23.06;48.43
35918;BME280;22011;59.912;30.300;2023-07-29T09:26:50;100125.38;;;22.66;49.29
35918;BME280;22011;59.912;30.300;2023-07-29T09:29:22;100128.72;;;22.41;49.36
35918;BME280;22011;59.912;30.300;2023-07-29T09:31:50;100130.69;;;22.50;49.25
35918;BME280;22011;59.912;30.300;2023-07-29T09:34:17;100120.88;;;22.44;49.33
35918;BME280;22011;59.912;30.300;2023-07-29T09:36:45;100129.34;;;22.21;49.13
35918;BME280;22011;59.912;30.300;2023-07-29T09:39:13;100128.06;;;22.02;49.14
35918;BME280;22011;59.912;30.300;2023-07-29T09:41:40;100127.72;;;21.98;49.38
35918;BME280;22011;59.912;30.300;2023-07-29T09:44:10;100136.66;;;22.21;49.12
35918;BME280;22011;59.912;30.300;2023-07-29T09:46:38;100123.31;;;22.46;49.61
35918;BME280;22011;59.912;30.300;2023-07-29T09:49:07;100130.69;;;22.50;48.10
35918;BME280;22011;59.912;30.300;2023-07-29T09:51:38;100129.81;;;22.45;48.08
35918;BME280;22011;59.912;30.300;2023-07-29T09:54:06;100132.97;;;22.32;47.87
35918;BME280;22011;59.912;30.300;2023-07-29T09:56:39;100140.72;;;22.50;47.56
35918;BME280;22011;59.912;30.300;2023-07-29T09:59:09;100135.09;;;22.57;47.88
35918;BME280;22011;59.912;30.300;2023-07-29T10:01:37;100132.09;;;22.58;47.31
35918;BME280;22011;59.912;30.300;2023-07-29T10:04:05;100138.50;;;22.42;47.57
35918;BME280;22011;59.912;30.300;2023-07-29T10:06:34;100142.69;;;22.28;48.16
35918;BME280;22011;59.912;30.300;2023-07-29T10:09:02;100146.13;;;22.18;48.76
35918;BME280;22011;59.912;30.300;2023-07-29T10:11:29;100148.78;;;22.13;48.70
35918;BME280;22011;59.912;30.300;2023-07-29T10:13:59;100157.00;;;21.96;49.13
35918;BME280;22011;59.912;30.300;2023-07-29T10:16:29;100156.81;;;22.03;48.96
35918;BME280;22011;59.912;30.300;2023-07-29T10:18:56;100155.19;;;22.02;49.36
35918;BME280;22011;59.912;30.300;2023-07-29T10:21:24;100149.75;;;22.02;49.41
35918;BME280;22011;59.912;30.300;2023-07-29T10:23:56;100162.56;;;22.06;49.66
35918;BME280;22011;59.912;30.300;2023-07-29T10:26:28;100152.63;;;21.95;50.56
35918;BME280;22011;59.912;30.300;2023-07-29T10:28:59;100157.41;;;21.83;50.54
35918;BME280;22011;59.912;30.300;2023-07-29T10:31:32;100147.84;;;21.75;51.09
35918;BME280;22011;59.912;30.300;2023-07-29T10:34:01;100149.16;;;21.73;51.81
35918;BME280;22011;59.912;30.300;2023-07-29T10:36:29;100151.19;;;21.82;51.07
35918;BME280;22011;59.912;30.300;2023-07-29T10:38:57;100135.94;;;22.03;50.66
35918;BME280;22011;59.912;30.300;2023-07-29T10:41:55;100146.16;;;22.50;50.59
35918;BME280;22011;59.912;30.300;2023-07-29T10:44:49;100140.06;;;22.70;49.56
35918;BME280;22011;59.912;30.300;2023-07-29T10:47:19;100146.03;;;22.67;48.56
35918;BME280;22011;59.912;30.300;2023-07-29T10:49:50;100137.47;;;22.80;48.80
35918;BME280;22011;59.912;30.300;2023-07-29T10:52:28;100146.09;;;23.14;48.05
35918;BME280;22011;59.912;30.300;2023-07-29T10:54:56;100140.28;;;23.00;47.72
35918;BME280;22011;59.912;30.300;2023-07-29T10:57:32;100142.72;;;22.97;48.16
35918;BME280;22011;59.912;30.300;2023-07-29T11:00:01;100139.91;;;22.49;47.88
35918;BME280;22011;59.912;30.300;2023-07-29T11:02:31;100135.47;;;22.38;49.00
35918;BME280;22011;59.912;30.300;2023-07-29T11:05:00;100127.94;;;22.45;48.77
35918;BME280;22011;59.912;30.300;2023-07-29T11:07:43;100127.47;;;22.86;49.30
35918;BME280;22011;59.912;30.300;2023-07-29T11:10:11;100137.06;;;23.03;47.60
35918;BME280;22011;59.912;30.300;2023-07-29T11:12:41;100136.34;;;23.23;47.21
35918;BME280;22011;59.912;30.300;2023-07-29T11:15:14;100137.13;;;23.61;46.68
35918;BME280;22011;59.912;30.300;2023-07-29T11:17:44;100134.13;;;23.62;44.84
35918;BME280;22011;59.912;30.300;2023-07-29T11:20:13;100138.66;;;23.46;46.14
35918;BME280;22011;59.912;30.300;2023-07-29T11:22:41;100140.53;;;23.41;46.02
35918;BME280;22011;59.912;30.300;2023-07-29T11:25:11;100132.91;;;23.43;46.52
35918;BME280;22011;59.912;30.300;2023-07-29T11:27:39;100129.56;;;23.26;46.41
35918;BME280;22011;59.912;30.300;2023-07-29T11:30:08;100125.38;;;23.03;47.35
35918;BME280;22011;59.912;30.300;2023-07-29T11:32:36;100123.19;;;23.00;47.82
35918;BME280;22011;59.912;30.300;2023-07-29T11:35:07;100136.03;;;23.14;48.40
35918;BME280;22011;59.912;30.300;2023-07-29T11:37:37;100125.22;;;23.25;47.53
35918;BME280;22011;59.912;30.300;2023-07-29T11:40:05;100129.38;;;23.42;48.29
35918;BME280;22011;59.912;30.300;2023-07-29T11:42:35;100130.50;;;23.52;47.79
35918;BME280;22011;59.912;30.300;2023-07-29T11:45:04;100123.66;;;23.39;46.42
35918;BME280;22011;59.912;30.300;2023-07-29T11:47:33;100126.59;;;23.27;45.04
35918;BME280;22011;59.912;30.300;2023-07-29T11:50:03;100121.91;;;23.12;45.78
35918;BME280;22011;59.912;30.300;2023-07-29T11:52:33;100128.16;;;23.13;46.12
35918;BME280;22011;59.912;30.300;2023-07-29T11:55:02;100125.81;;;22.90;44.63
35918;BME280;22011;59.912;30.300;2023-07-29T11:57:30;100116.06;;;22.94;44.95
35918;BME280;22011;59.912;30.300;2023-07-29T11:59:58;100120.06;;;23.23;44.07
35918;BME280;22011;59.912;30.300;2023-07-29T12:02:26;100113.84;;;23.33;44.32
35918;BME280;22011;59.912;30.300;2023-07-29T12:04:54;100119.78;;;23.25;43.48
35918;BME280;22011;59.912;30.300;2023-07-29T12:07:23;100120.78;;;23.08;43.45
35918;BME280;22011;59.912;30.300;2023-07-29T12:09:52;100124.28;;;23.04;43.51
35918;BME280;22011;59.912;30.300;2023-07-29T12:12:22;100126.97;;;22.99;44.68
35918;BME280;22011;59.912;30.300;2023-07-29T12:14:50;100136.94;;;22.88;43.68
35918;BME280;22011;59.912;30.300;2023-07-29T12:17:18;100143.63;;;22.70;45.13
35918;BME280;22011;59.912;30.300;2023-07-29T12:19:45;100138.34;;;22.59;45.83
35918;BME280;22011;59.912;30.300;2023-07-29T12:22:18;100146.09;;;22.77;46.73
35918;BME280;22011;59.912;30.300;2023-07-29T12:24:45;100137.50;;;22.85;46.31
35918;BME280;22011;59.912;30.300;2023-07-29T12:27:14;100136.81;;;23.10;46.07
35918;BME280;22011;59.912;30.300;2023-07-29T12:29:43;100143.63;;;23.12;45.91
35918;BME280;22011;59.912;30.300;2023-07-29T12:32:12;100136.88;;;23.20;44.52
35918;BME280;22011;59.912;30.300;2023-07-29T12:34:40;100136.34;;;23.23;44.72
35918;BME280;22011;59.912;30.300;2023-07-29T12:37:07;100127.47;;;23.38;43.94
35918;BME280;22011;59.912;30.300;2023-07-29T12:39:40;100133.22;;;23.52;43.66
35918;BME280;22011;59.912;30.300;2023-07-29T12:42:07;100133.16;;;23.36;43.77
35918;BME280;22011;59.912;30.300;2023-07-29T12:44:38;100136.19;;;23.45;43.64
35918;BME280;22011;59.912;30.300;2023-07-29T12:47:06;100141.09;;;23.48;43.67
35918;BME280;22011;59.912;30.300;2023-07-29T12:49:35;100128.38;;;23.54;43.89